createdAt,value
2023-01-30T00:01:54.987Z,6.70
2023-01-30T00:04:22.184Z,10.40
2023-01-30T00:06:49.004Z,7.80
2023-01-30T00:09:16.265Z,6.07
2023-01-30T00:11:43.138Z,6.18
2023-01-30T00:14:10.547Z,6.00
2023-01-30T00:16:37.864Z,6.82
2023-01-30T00:19:05.110Z,6.45
2023-01-30T00:21:31.910Z,6.45
2023-01-30T00:24:01.097Z,5.82
2023-01-30T00:26:28.031Z,5.50
2023-01-30T00:28:55.258Z,6.00
2023-01-30T00:31:23.320Z,5.40
2023-01-30T00:33:50.958Z,5.47
2023-01-30T00:36:17.850Z,5.20
2023-01-30T00:38:45.018Z,5.07
2023-01-30T00:41:13.763Z,5.82
2023-01-30T00:44:00.782Z,7.45
2023-01-30T00:46:49.869Z,6.22
2023-01-30T00:49:17.230Z,7.15
2023-01-30T00:51:44.653Z,5.53
2023-01-30T00:54:15.296Z,5.47
2023-01-30T00:56:42.148Z,5.25
2023-01-30T00:59:09.411Z,5.30
2023-01-30T01:01:37.767Z,5.05
2023-01-30T01:04:06.659Z,6.07
2023-01-30T01:06:33.731Z,6.05
2023-01-30T01:09:00.938Z,5.32
2023-01-30T01:11:28.054Z,5.50
2023-01-30T01:14:00.439Z,5.32
2023-01-30T01:16:29.039Z,6.87
2023-01-30T01:18:58.805Z,7.07
2023-01-30T01:21:25.669Z,5.30
2023-01-30T01:23:58.599Z,6.22
2023-01-30T01:26:25.813Z,5.03
2023-01-30T01:28:56.910Z,5.00
2023-01-30T01:31:24.574Z,5.35
2023-01-30T01:33:52.272Z,5.32
2023-01-30T01:36:42.352Z,4.72
2023-01-30T01:39:06.309Z,5.30
2023-01-30T01:41:33.164Z,5.53
2023-01-30T01:44:07.908Z,7.38
2023-01-30T01:46:46.340Z,7.50
2023-01-30T01:49:31.015Z,7.68
2023-01-30T01:52:09.488Z,7.75
2023-01-30T01:54:50.454Z,8.57
2023-01-30T01:57:25.551Z,7.70
2023-01-30T02:00:02.519Z,9.48
2023-01-30T02:02:59.983Z,8.55
2023-01-30T02:05:32.539Z,8.43
2023-01-30T02:08:07.897Z,7.87
2023-01-30T02:10:43.787Z,6.47
2023-01-30T02:13:10.633Z,6.90
2023-01-30T02:15:38.069Z,5.95
2023-01-30T02:18:05.120Z,5.65
2023-01-30T02:21:09.552Z,5.87
2023-01-30T02:23:55.829Z,5.13
2023-01-30T02:26:55.064Z,8.65
2023-01-30T02:29:50.250Z,7.57
2023-01-30T02:32:56.425Z,9.18
2023-01-30T02:35:35.311Z,10.87
2023-01-30T02:38:11.524Z,12.07
2023-01-30T02:40:53.452Z,9.20
2023-01-30T02:43:27.499Z,7.28
2023-01-30T02:46:18.032Z,9.07
2023-01-30T02:49:00.980Z,7.87
2023-01-30T02:51:33.895Z,6.00
2023-01-30T02:54:01.397Z,6.72
2023-01-30T02:56:28.256Z,6.43
2023-01-30T02:59:02.344Z,5.82
2023-01-30T03:02:05.630Z,5.77
2023-01-30T03:04:48.277Z,6.68
2023-01-30T03:07:56.789Z,12.30
2023-01-30T03:10:43.254Z,10.52
2023-01-30T03:13:25.415Z,8.65
2023-01-30T03:16:00.106Z,10.17
2023-01-30T03:18:27.035Z,11.55
2023-01-30T03:20:54.871Z,9.98
2023-01-30T03:23:21.782Z,8.57
2023-01-30T03:25:49.158Z,9.18
2023-01-30T03:28:19.865Z,7.73
2023-01-30T03:30:47.343Z,7.80
2023-01-30T03:33:14.818Z,7.72
2023-01-30T03:35:47.499Z,7.05
2023-01-30T03:38:14.908Z,6.65
2023-01-30T03:40:42.140Z,8.37
2023-01-30T03:43:09.548Z,8.45
2023-01-30T03:45:37.456Z,10.90
2023-01-30T03:48:05.472Z,10.35
2023-01-30T03:50:33.178Z,10.38
2023-01-30T03:53:01.036Z,10.97
2023-01-30T03:55:29.312Z,9.35
2023-01-30T03:57:57.210Z,8.25
2023-01-30T04:00:26.105Z,8.27
2023-01-30T04:02:54.920Z,9.00
2023-01-30T04:05:22.617Z,9.80
2023-01-30T04:07:58.014Z,9.50
2023-01-30T04:10:26.114Z,11.07
2023-01-30T04:12:53.250Z,11.30
2023-01-30T04:15:20.807Z,13.25
2023-01-30T04:17:58.052Z,11.73
2023-01-30T04:20:45.760Z,11.25
2023-01-30T04:23:13.193Z,12.93
2023-01-30T04:25:40.712Z,12.02
2023-01-30T04:28:09.505Z,13.02
2023-01-30T04:30:38.525Z,13.60
2023-01-30T04:33:37.086Z,12.98
2023-01-30T04:36:07.463Z,10.13
2023-01-30T04:38:35.105Z,10.60
2023-01-30T04:41:03.383Z,9.60
2023-01-30T04:43:32.970Z,10.33
2023-01-30T04:46:20.426Z,14.20
2023-01-30T04:48:47.277Z,13.43
2023-01-30T04:51:15.547Z,13.50
2023-01-30T04:53:42.426Z,12.60
2023-01-30T04:56:09.737Z,12.63
2023-01-30T04:58:36.767Z,24.40
2023-01-30T05:01:22.813Z,13.20
2023-01-30T05:03:51.521Z,13.07
2023-01-30T05:06:19.472Z,13.52
2023-01-30T05:08:50.617Z,14.93
2023-01-30T05:11:17.841Z,10.98
2023-01-30T05:13:45.109Z,10.55
2023-01-30T05:16:13.674Z,11.05
2023-01-30T05:18:40.561Z,11.25
2023-01-30T05:21:10.347Z,12.00
2023-01-30T05:23:37.188Z,9.50
2023-01-30T05:26:04.638Z,9.27
2023-01-30T05:28:31.898Z,9.40
2023-01-30T05:31:09.905Z,9.35
2023-01-30T05:33:38.698Z,10.67
2023-01-30T05:36:06.656Z,7.95
2023-01-30T05:38:33.452Z,8.40
2023-01-30T05:41:08.372Z,9.85
2023-01-30T05:43:35.633Z,8.43
2023-01-30T05:46:05.746Z,10.57
2023-01-30T05:48:33.638Z,8.85
2023-01-30T05:51:01.343Z,8.90
2023-01-30T05:53:30.505Z,10.05
2023-01-30T05:55:59.322Z,9.63
2023-01-30T05:58:28.002Z,10.27
2023-01-30T06:00:59.679Z,9.38
2023-01-30T06:03:26.638Z,9.00
2023-01-30T06:05:54.056Z,9.25
2023-01-30T06:08:20.831Z,9.48
2023-01-30T06:10:47.951Z,9.00
2023-01-30T06:13:14.914Z,9.50
2023-01-30T06:15:42.071Z,9.15
2023-01-30T06:18:08.897Z,11.15
2023-01-30T06:20:36.058Z,10.13
2023-01-30T06:23:02.904Z,8.63
2023-01-30T06:25:30.439Z,8.02
2023-01-30T06:27:57.293Z,8.93
2023-01-30T06:30:24.571Z,9.05
2023-01-30T06:32:51.729Z,8.30
2023-01-30T06:35:19.397Z,8.77
2023-01-30T06:37:46.446Z,6.97
2023-01-30T06:40:14.038Z,8.48
2023-01-30T06:42:48.119Z,6.72
2023-01-30T06:45:17.859Z,7.45
2023-01-30T06:47:45.850Z,7.87
2023-01-30T06:50:14.660Z,6.53
2023-01-30T06:52:42.950Z,6.28
2023-01-30T06:55:11.860Z,7.63
2023-01-30T06:57:38.696Z,7.20
2023-01-30T07:00:07.943Z,6.87
2023-01-30T07:02:35.567Z,8.23
2023-01-30T07:05:05.010Z,8.30
2023-01-30T07:07:32.435Z,7.78
2023-01-30T07:10:07.709Z,7.47
2023-01-30T07:12:36.287Z,7.57
2023-01-30T07:15:05.358Z,6.28
2023-01-30T07:17:32.982Z,6.80
2023-01-30T07:20:00.231Z,5.95
2023-01-30T07:22:27.091Z,5.95
2023-01-30T07:24:54.272Z,7.80
2023-01-30T07:27:21.220Z,7.68
2023-01-30T07:29:48.387Z,7.47
2023-01-30T07:32:19.312Z,7.38
2023-01-30T07:34:47.189Z,7.20
2023-01-30T07:37:14.251Z,7.83
2023-01-30T07:39:41.780Z,7.72
2023-01-30T07:42:08.607Z,7.22
2023-01-30T07:44:35.761Z,7.43
2023-01-30T07:47:03.009Z,8.85
2023-01-30T07:49:30.186Z,8.77
2023-01-30T07:51:57.203Z,8.85
2023-01-30T07:54:24.428Z,8.80
2023-01-30T07:56:51.202Z,8.18
2023-01-30T07:59:18.319Z,7.53
2023-01-30T08:01:45.070Z,9.30
2023-01-30T08:04:12.342Z,7.75
2023-01-30T08:06:39.795Z,8.18
2023-01-30T08:09:07.525Z,8.68
2023-01-30T08:11:35.117Z,8.48
2023-01-30T08:14:02.932Z,7.57
2023-01-30T08:16:32.420Z,8.55
2023-01-30T08:19:00.204Z,9.43
2023-01-30T08:21:27.055Z,8.63
2023-01-30T08:23:54.179Z,8.77
2023-01-30T08:26:21.321Z,8.47
2023-01-30T08:28:48.514Z,8.50
2023-01-30T08:31:17.178Z,8.63
2023-01-30T08:33:44.854Z,8.50
2023-01-30T08:36:11.696Z,9.77
2023-01-30T08:38:38.848Z,9.10
2023-01-30T08:41:08.359Z,9.55
2023-01-30T08:43:35.907Z,9.13
2023-01-30T08:46:02.941Z,9.52
2023-01-30T08:48:40.010Z,9.82
2023-01-30T08:51:14.711Z,8.73
2023-01-30T08:53:42.051Z,9.45
2023-01-30T08:56:08.987Z,9.07
2023-01-30T08:58:36.172Z,7.93
2023-01-30T09:01:07.061Z,8.38
2023-01-30T09:03:34.580Z,9.13
2023-01-30T09:06:01.491Z,9.93
2023-01-30T09:08:28.927Z,10.05
2023-01-30T09:10:59.919Z,9.10
2023-01-30T09:13:27.503Z,8.88
2023-01-30T09:15:54.452Z,9.10
2023-01-30T09:18:21.668Z,9.23
2023-01-30T09:20:48.497Z,8.50
2023-01-30T09:23:15.764Z,8.85
2023-01-30T09:25:45.639Z,8.90
2023-01-30T09:28:13.344Z,7.73
2023-01-30T09:30:40.369Z,9.32
2023-01-30T09:33:07.591Z,8.80
2023-01-30T09:35:34.407Z,8.60
2023-01-30T09:38:01.690Z,8.85
2023-01-30T09:40:31.627Z,8.90
2023-01-30T09:43:25.150Z,8.77
2023-01-30T09:46:12.996Z,9.07
2023-01-30T09:49:13.878Z,8.35
2023-01-30T09:51:50.706Z,7.88
2023-01-30T09:54:24.626Z,8.30
2023-01-30T09:57:01.463Z,8.82
2023-01-30T09:59:35.371Z,9.25
2023-01-30T10:02:30.297Z,9.45
2023-01-30T10:05:02.138Z,8.15
2023-01-30T10:07:29.224Z,9.83
2023-01-30T10:09:59.451Z,9.35
2023-01-30T10:12:57.137Z,10.68
2023-01-30T10:15:46.614Z,10.65
2023-01-30T10:18:48.802Z,10.75
2023-01-30T10:21:18.524Z,10.00
2023-01-30T10:23:55.008Z,11.00
2023-01-30T10:26:26.190Z,9.65
2023-01-30T10:29:06.567Z,9.73
2023-01-30T10:31:44.824Z,10.18
2023-01-30T10:34:18.699Z,9.67
2023-01-30T10:37:18.301Z,9.52
2023-01-30T10:40:14.398Z,10.75
2023-01-30T10:42:52.687Z,8.80
2023-01-30T10:45:27.211Z,9.90
2023-01-30T10:48:17.690Z,9.90
2023-01-30T10:50:54.141Z,9.20
2023-01-30T10:53:35.312Z,10.50
2023-01-30T10:56:18.611Z,9.60
2023-01-30T10:59:03.640Z,11.00
2023-01-30T11:01:42.593Z,11.00
2023-01-30T11:04:50.022Z,9.63
2023-01-30T11:07:17.009Z,9.45
2023-01-30T11:09:46.950Z,9.48
2023-01-30T11:12:14.626Z,7.78
2023-01-30T11:14:55.071Z,9.00
2023-01-30T11:17:29.857Z,8.57
2023-01-30T11:20:01.847Z,8.43
2023-01-30T11:22:31.782Z,9.02
2023-01-30T11:25:13.606Z,8.75
2023-01-30T11:27:44.411Z,9.07
2023-01-30T11:30:20.120Z,9.07
2023-01-30T11:32:50.748Z,8.30
2023-01-30T11:35:25.283Z,8.88
2023-01-30T11:37:53.581Z,8.45
2023-01-30T11:40:26.842Z,8.63
2023-01-30T11:43:14.330Z,8.05
2023-01-30T11:45:46.032Z,8.90
2023-01-30T11:48:33.071Z,8.60
2023-01-30T11:51:09.950Z,9.05
2023-01-30T11:53:46.032Z,9.27
2023-01-30T11:56:22.487Z,9.38
2023-01-30T11:58:59.105Z,8.52
2023-01-30T12:01:30.217Z,8.95
2023-01-30T12:03:58.282Z,8.45
2023-01-30T12:06:38.171Z,7.97
2023-01-30T12:09:05.796Z,8.85
2023-01-30T12:11:45.306Z,9.15
2023-01-30T12:14:40.260Z,9.25
2023-01-30T12:17:21.656Z,8.07
2023-01-30T12:20:28.804Z,8.07
2023-01-30T12:23:15.306Z,9.93
2023-01-30T12:26:05.453Z,9.43
2023-01-30T12:29:15.265Z,8.75
2023-01-30T12:31:49.828Z,8.02
2023-01-30T12:34:17.130Z,8.80
2023-01-30T12:36:59.209Z,8.90
2023-01-30T12:39:57.540Z,9.50
2023-01-30T12:42:30.281Z,8.85
2023-01-30T12:45:12.279Z,9.20
2023-01-30T12:47:57.936Z,8.30
2023-01-30T12:50:39.725Z,9.00
2023-01-30T12:53:16.507Z,9.20
2023-01-30T12:55:57.683Z,8.82
2023-01-30T12:58:32.230Z,8.23
2023-01-30T13:01:29.856Z,9.03
2023-01-30T13:04:28.880Z,8.68
2023-01-30T13:07:15.428Z,9.60
2023-01-30T13:10:15.339Z,9.80
2023-01-30T13:13:22.263Z,8.95
2023-01-30T13:16:06.290Z,7.83
2023-01-30T13:18:47.181Z,8.32
2023-01-30T13:21:22.342Z,8.60
2023-01-30T13:24:17.362Z,8.70
2023-01-30T13:26:45.817Z,8.60
2023-01-30T13:29:23.727Z,9.10
2023-01-30T13:31:56.359Z,8.52
2023-01-30T13:34:45.101Z,8.48
2023-01-30T13:37:19.359Z,9.27
2023-01-30T13:39:52.513Z,8.50
2023-01-30T13:42:25.403Z,8.83
2023-01-30T13:44:53.963Z,8.85
2023-01-30T13:47:39.710Z,8.95
2023-01-30T13:50:35.440Z,10.80
2023-01-30T13:53:07.977Z,9.80
2023-01-30T13:55:45.061Z,15.97
2023-01-30T13:58:35.095Z,16.23
2023-01-30T14:01:02.635Z,9.60
2023-01-30T14:03:34.155Z,10.70
2023-01-30T14:06:04.084Z,11.73
2023-01-30T14:08:40.980Z,13.53
2023-01-30T14:11:34.563Z,12.48
2023-01-30T14:14:06.895Z,8.98
2023-01-30T14:16:48.721Z,9.45
2023-01-30T14:19:24.273Z,10.50
2023-01-30T14:21:59.924Z,9.47
2023-01-30T14:24:27.616Z,13.38
2023-01-30T14:26:59.671Z,11.32
2023-01-30T14:29:38.336Z,8.68
2023-01-30T14:32:15.536Z,7.57
2023-01-30T14:35:06.832Z,8.07
2023-01-30T14:37:41.636Z,8.65
2023-01-30T14:40:23.283Z,6.60
2023-01-30T14:43:12.432Z,7.10
2023-01-30T14:45:49.576Z,7.15
2023-01-30T14:48:44.803Z,6.97
2023-01-30T14:51:15.942Z,7.50
2023-01-30T14:53:56.943Z,7.80
2023-01-30T14:56:50.003Z,7.65
2023-01-30T14:59:17.121Z,13.23
2023-01-30T15:02:01.358Z,8.23
2023-01-30T15:04:40.632Z,8.02
2023-01-30T15:07:12.021Z,6.72
2023-01-30T15:09:42.298Z,6.82
2023-01-30T15:12:39.168Z,7.20
2023-01-30T15:15:35.436Z,7.03
2023-01-30T15:18:18.248Z,7.00
2023-01-30T15:20:57.656Z,7.55
2023-01-30T15:23:43.246Z,6.88
2023-01-30T15:26:21.640Z,5.95
2023-01-30T15:29:10.219Z,7.20
2023-01-30T15:31:37.445Z,6.63
2023-01-30T15:34:22.355Z,6.07
2023-01-30T15:36:49.590Z,5.95
2023-01-30T15:39:21.584Z,6.38
2023-01-30T15:41:49.507Z,6.00
2023-01-30T15:44:44.628Z,6.30
2023-01-30T15:47:27.033Z,6.40
2023-01-30T15:49:56.402Z,6.78
2023-01-30T15:52:34.858Z,6.53
2023-01-30T15:55:02.314Z,8.20
2023-01-30T15:57:40.028Z,6.57
2023-01-30T16:00:08.984Z,7.47
2023-01-30T16:02:43.136Z,7.35
2023-01-30T16:05:23.680Z,6.55
2023-01-30T16:07:54.388Z,8.03
2023-01-30T16:10:25.754Z,7.20
2023-01-30T16:12:56.239Z,6.40
2023-01-30T16:15:35.963Z,7.28
2023-01-30T16:18:10.685Z,7.55
2023-01-30T16:21:00.252Z,7.43
2023-01-30T16:24:02.825Z,7.60
2023-01-30T16:26:31.129Z,9.45
2023-01-30T16:29:06.948Z,9.02
2023-01-30T16:31:37.199Z,7.60
2023-01-30T16:34:05.500Z,7.30
2023-01-30T16:36:39.868Z,8.52
2023-01-30T16:39:42.699Z,8.23
2023-01-30T16:42:27.818Z,11.93
2023-01-30T16:45:21.581Z,21.63
2023-01-30T16:47:48.584Z,12.13
2023-01-30T16:50:22.464Z,9.73
2023-01-30T16:52:55.065Z,6.60
2023-01-30T16:55:25.307Z,8.18
2023-01-30T16:57:55.743Z,10.68
2023-01-30T17:00:24.422Z,5.87
2023-01-30T17:02:57.438Z,7.75
2023-01-30T17:05:27.722Z,8.10
2023-01-30T17:07:58.533Z,9.32
2023-01-30T17:10:28.401Z,7.07
2023-01-30T17:12:59.396Z,7.70
2023-01-30T17:15:37.174Z,8.50
2023-01-30T17:18:04.074Z,7.25
2023-01-30T17:20:38.051Z,6.00
2023-01-30T17:23:09.139Z,6.90
2023-01-30T17:25:41.225Z,7.80
2023-01-30T17:28:17.878Z,9.50
2023-01-30T17:30:45.103Z,9.60
2023-01-30T17:33:12.190Z,8.38
2023-01-30T17:35:40.577Z,6.97
2023-01-30T17:38:09.129Z,9.00
2023-01-30T17:40:38.086Z,7.70
2023-01-30T17:43:05.631Z,8.00
2023-01-30T17:45:33.100Z,8.05
2023-01-30T17:47:59.873Z,12.15
2023-01-30T17:50:28.623Z,10.50
2023-01-30T17:52:55.460Z,9.15
2023-01-30T17:55:22.833Z,8.63
2023-01-30T17:57:49.757Z,9.23
2023-01-30T18:00:20.130Z,10.43
2023-01-30T18:02:47.230Z,8.93
2023-01-30T18:05:14.808Z,12.15
2023-01-30T18:07:42.547Z,10.05
2023-01-30T18:10:18.638Z,9.23
2023-01-30T18:12:45.815Z,12.20
2023-01-30T18:15:15.204Z,10.53
2023-01-30T18:17:47.766Z,16.27
2023-01-30T18:20:18.210Z,15.52
2023-01-30T18:22:45.525Z,11.98
2023-01-30T18:25:13.832Z,7.70
2023-01-30T18:27:44.079Z,16.83
2023-01-30T18:30:15.085Z,14.45
2023-01-30T18:32:52.173Z,18.73
2023-01-30T18:35:20.116Z,18.23
2023-01-30T18:37:46.902Z,28.38
2023-01-30T18:40:15.263Z,13.40
2023-01-30T18:42:42.153Z,19.10
2023-01-30T18:45:09.672Z,16.95
2023-01-30T18:47:36.455Z,17.63
2023-01-30T18:50:04.570Z,11.88
2023-01-30T18:52:31.765Z,14.43
2023-01-30T18:54:58.903Z,21.58
2023-01-30T18:57:25.759Z,18.23
2023-01-30T18:59:52.971Z,17.35
2023-01-30T19:02:19.794Z,19.00
2023-01-30T19:04:46.987Z,15.80
2023-01-30T19:07:13.796Z,12.20
2023-01-30T19:09:41.046Z,15.70
2023-01-30T19:12:26.474Z,12.82
2023-01-30T19:14:53.593Z,15.15
2023-01-30T19:17:20.435Z,13.43
2023-01-30T19:19:47.771Z,9.00
2023-01-30T19:22:17.208Z,8.88
2023-01-30T19:24:45.112Z,7.63
2023-01-30T19:27:14.096Z,6.35
2023-01-30T19:29:42.838Z,7.82
2023-01-30T19:32:09.788Z,7.13
2023-01-30T19:34:38.451Z,7.10
2023-01-30T19:37:05.332Z,9.00
2023-01-30T19:39:32.440Z,7.78
2023-01-30T19:41:59.241Z,9.98
2023-01-30T19:44:26.339Z,9.73
2023-01-30T19:46:53.123Z,10.85
2023-01-30T19:49:20.241Z,11.63
2023-01-30T19:51:47.082Z,9.93
2023-01-30T19:54:14.503Z,7.43
2023-01-30T19:56:42.608Z,9.57
2023-01-30T19:59:11.222Z,6.90
2023-01-30T20:01:40.076Z,7.07
2023-01-30T20:04:07.707Z,6.80
2023-01-30T20:06:35.984Z,6.40
2023-01-30T20:09:11.056Z,7.13
2023-01-30T20:11:40.307Z,6.82
2023-01-30T20:14:08.943Z,5.13
2023-01-30T20:16:36.476Z,5.40
2023-01-30T20:19:09.133Z,4.95
2023-01-30T20:21:36.220Z,9.73
2023-01-30T20:24:04.470Z,8.60
2023-01-30T20:26:35.216Z,10.00
2023-01-30T20:29:04.361Z,8.13
2023-01-30T20:31:32.146Z,7.18
2023-01-30T20:34:04.883Z,5.50
2023-01-30T20:36:32.231Z,5.80
2023-01-30T20:39:04.495Z,5.28
2023-01-30T20:41:37.413Z,5.13
2023-01-30T20:44:06.926Z,8.70
2023-01-30T20:46:42.572Z,8.77
2023-01-30T20:49:17.893Z,7.45
2023-01-30T20:51:45.857Z,6.65
2023-01-30T20:54:14.834Z,6.50
2023-01-30T20:56:49.802Z,6.43
2023-01-30T20:59:24.240Z,7.03
2023-01-30T21:01:52.048Z,6.68
2023-01-30T21:04:20.578Z,5.82
2023-01-30T21:06:47.631Z,5.45
2023-01-30T21:09:20.458Z,6.45
2023-01-30T21:11:48.635Z,5.30
2023-01-30T21:14:16.666Z,6.80
2023-01-30T21:16:43.763Z,5.43
2023-01-30T21:19:15.194Z,5.18
2023-01-30T21:21:50.981Z,4.93
2023-01-30T21:24:22.446Z,5.33
2023-01-30T21:26:49.429Z,5.03
2023-01-30T21:29:22.353Z,4.32
2023-01-30T21:31:49.997Z,5.25
2023-01-30T21:34:17.263Z,5.20
2023-01-30T21:36:44.173Z,4.73
2023-01-30T21:39:32.385Z,4.13
2023-01-30T21:42:17.841Z,4.53
2023-01-30T21:44:44.992Z,4.30
2023-01-30T21:47:11.820Z,4.72
2023-01-30T21:49:40.631Z,3.73
2023-01-30T21:52:07.424Z,4.00
2023-01-30T21:54:34.503Z,4.20
2023-01-30T21:57:01.315Z,3.60
2023-01-30T21:59:28.449Z,3.38
2023-01-30T22:01:55.298Z,3.83
2023-01-30T22:04:22.491Z,3.35
2023-01-30T22:06:49.292Z,4.50
2023-01-30T22:09:16.529Z,4.60
2023-01-30T22:11:43.529Z,5.15
2023-01-30T22:14:13.568Z,5.97
2023-01-30T22:16:41.553Z,5.75
2023-01-30T22:19:09.092Z,7.35
2023-01-30T22:21:38.762Z,6.32
2023-01-30T22:24:08.468Z,6.20
2023-01-30T22:26:36.466Z,5.00
2023-01-30T22:29:05.838Z,5.40
2023-01-30T22:31:35.476Z,6.47
2023-01-30T22:34:04.029Z,6.25
2023-01-30T22:36:33.497Z,6.28
2023-01-30T22:39:01.283Z,6.17
2023-01-30T22:41:30.787Z,5.05
2023-01-30T22:43:59.773Z,4.13
2023-01-30T22:46:36.105Z,4.47
2023-01-30T22:49:05.764Z,3.58
2023-01-30T22:51:38.492Z,3.70
2023-01-30T22:54:09.127Z,3.63
2023-01-30T22:56:38.719Z,4.47
2023-01-30T22:59:06.534Z,4.63
2023-01-30T23:01:39.340Z,4.57
2023-01-30T23:04:11.198Z,4.20
2023-01-30T23:06:38.408Z,5.05
2023-01-30T23:09:07.373Z,5.40
2023-01-30T23:11:35.794Z,4.63
2023-01-30T23:14:11.957Z,4.90
2023-01-30T23:16:40.598Z,4.03
2023-01-30T23:19:09.489Z,3.33
2023-01-30T23:21:40.626Z,4.40
2023-01-30T23:24:11.078Z,4.70
2023-01-30T23:26:40.327Z,5.45
2023-01-30T23:29:09.471Z,5.30
2023-01-30T23:31:36.951Z,4.65
2023-01-30T23:34:06.392Z,4.25
2023-01-30T23:36:34.335Z,4.15
2023-01-30T23:39:01.619Z,4.43
2023-01-30T23:41:31.237Z,3.70
2023-01-30T23:43:59.705Z,3.08
2023-01-30T23:46:35.343Z,3.90
2023-01-30T23:49:08.438Z,5.72
2023-01-30T23:51:37.502Z,5.40
2023-01-30T23:54:05.949Z,5.57
2023-01-30T23:56:36.189Z,5.85
2023-01-30T23:59:04.644Z,5.57
